createdAt,value
2018-07-04T21:00:03.166Z,95116.09
2018-07-04T21:03:26.988Z,95113.32
2018-07-04T21:06:07.760Z,95113.22
2018-07-04T21:08:47.663Z,95116.55
2018-07-04T21:11:28.390Z,95109.64
2018-07-04T21:14:08.323Z,95112.98
2018-07-04T21:16:48.214Z,95113.52
2018-07-04T21:19:28.313Z,95105.83
2018-07-04T21:22:08.311Z,95103.16
2018-07-04T21:24:48.327Z,95095.23
2018-07-04T21:27:28.611Z,95094.47
2018-07-04T21:30:08.647Z,95102.81
2018-07-04T21:32:49.119Z,95097.36
2018-07-04T21:35:29.854Z,95096.02
2018-07-04T21:38:10.286Z,95094.47
2018-07-04T21:40:50.182Z,95094.02
2018-07-04T21:43:30.454Z,95090.00
2018-07-04T21:46:11.208Z,95087.77
2018-07-04T21:48:51.569Z,95091.55
2018-07-04T21:51:32.097Z,95097.80
2018-07-04T21:54:12.315Z,95101.38
2018-07-04T21:56:52.539Z,95096.80
2018-07-04T21:59:32.638Z,95101.03
2018-07-04T22:02:12.550Z,95097.14
2018-07-04T22:04:52.784Z,95092.47
2018-07-04T22:07:33.512Z,95092.58
2018-07-04T22:10:13.652Z,95090.55
2018-07-04T22:12:53.574Z,95090.47
2018-07-04T22:15:33.790Z,95085.56
2018-07-04T22:18:13.923Z,95082.41
2018-07-04T22:20:53.982Z,95081.75
2018-07-04T22:23:34.014Z,95088.44
2018-07-04T22:26:15.201Z,95086.40
2018-07-04T22:28:55.342Z,95079.39
2018-07-04T22:31:36.778Z,95076.27
2018-07-04T22:34:16.992Z,95069.33
2018-07-04T22:36:57.257Z,95072.14
2018-07-04T22:39:37.726Z,95070.11
2018-07-04T22:42:18.731Z,95065.67
2018-07-04T22:45:00.388Z,95063.89
2018-07-04T22:47:40.860Z,95063.98
2018-07-04T22:50:20.790Z,95066.66
2018-07-04T22:53:01.332Z,95064.09
2018-07-04T22:55:41.198Z,95068.10
2018-07-04T22:58:21.588Z,95064.42
2018-07-04T23:01:01.829Z,95063.42
2018-07-04T23:03:42.504Z,95062.98
2018-07-04T23:06:22.459Z,95065.44
2018-07-04T23:09:02.690Z,95060.98
2018-07-04T23:11:42.853Z,95063.41
2018-07-04T23:14:23.140Z,95058.98
2018-07-04T23:17:03.212Z,95059.29
2018-07-04T23:19:43.850Z,95065.42
2018-07-04T23:22:23.703Z,95062.30
2018-07-04T23:25:03.619Z,95058.62
2018-07-04T23:27:43.904Z,95061.64
2018-07-04T23:30:24.156Z,95055.59
2018-07-04T23:33:04.108Z,95059.06
2018-07-04T23:35:44.421Z,95065.20
2018-07-04T23:38:24.418Z,95069.55
2018-07-04T23:41:04.790Z,95065.63
2018-07-04T23:43:44.877Z,95060.73
2018-07-04T23:46:26.110Z,95064.09
2018-07-04T23:49:06.165Z,95056.16
2018-07-04T23:51:46.519Z,95051.27
2018-07-04T23:54:26.441Z,95046.01
2018-07-04T23:57:06.885Z,95053.38
2018-07-04T23:59:47.068Z,95056.72
